createdAt,value
2023-04-22T00:00:07.815Z,19.72
2023-04-22T00:00:52.685Z,19.72
2023-04-22T00:01:37.749Z,19.72
2023-04-22T00:02:23.003Z,19.72
2023-04-22T00:03:07.850Z,19.72
2023-04-22T00:03:53.103Z,19.72
2023-04-22T00:04:37.987Z,19.72
2023-04-22T00:05:23.120Z,19.72
2023-04-22T00:06:08.303Z,19.72
2023-04-22T00:06:53.242Z,19.72
2023-04-22T00:07:38.688Z,19.72
2023-04-22T00:08:23.617Z,19.72
2023-04-22T00:09:08.934Z,19.72
2023-04-22T00:09:53.617Z,19.72
2023-04-22T00:10:38.400Z,19.72
2023-04-22T00:11:23.901Z,19.72
2023-04-22T00:12:08.700Z,19.72
2023-04-22T00:12:53.803Z,19.72
2023-04-22T00:13:38.656Z,19.72
2023-04-22T00:14:23.394Z,19.72
2023-04-22T00:15:08.777Z,19.72
2023-04-22T00:15:53.450Z,19.72
2023-04-22T00:16:38.670Z,19.72
2023-04-22T00:17:24.410Z,19.72
2023-04-22T00:18:09.058Z,19.72
2023-04-22T00:18:53.818Z,19.72
2023-04-22T00:19:39.291Z,19.72
2023-04-22T00:20:23.744Z,19.72
2023-04-22T00:21:09.396Z,19.72
2023-04-22T00:21:53.862Z,19.72
2023-04-22T00:22:39.250Z,19.72
2023-04-22T00:23:24.275Z,19.72
2023-04-22T00:24:09.864Z,19.72
2023-04-22T00:24:54.163Z,19.72
2023-04-22T00:25:39.439Z,19.72
2023-04-22T00:26:25.216Z,19.72
2023-04-22T00:27:09.271Z,19.72
2023-04-22T00:27:54.511Z,19.72
2023-04-22T00:28:39.646Z,19.72
2023-04-22T00:29:24.849Z,19.72
2023-04-22T00:30:09.511Z,19.72
2023-04-22T00:30:54.918Z,19.72
2023-04-22T00:31:39.604Z,19.72
2023-04-22T00:32:24.760Z,19.72
2023-04-22T00:33:09.770Z,19.72
2023-04-22T00:33:54.326Z,19.72
2023-04-22T00:34:39.589Z,19.72
2023-04-22T00:35:24.510Z,19.72
2023-04-22T00:36:10.030Z,19.72
2023-04-22T00:36:55.014Z,19.72
2023-04-22T00:37:39.737Z,19.72
2023-04-22T00:38:24.973Z,19.72
2023-04-22T00:39:09.940Z,19.72
2023-04-22T00:39:54.986Z,19.72
2023-04-22T00:40:40.397Z,19.72
2023-04-22T00:41:25.458Z,19.72
2023-04-22T00:42:10.602Z,19.72
2023-04-22T00:42:55.443Z,19.72
2023-04-22T00:43:40.372Z,19.72
2023-04-22T00:44:25.742Z,19.72
2023-04-22T00:45:10.874Z,19.72
2023-04-22T00:45:55.244Z,19.72
2023-04-22T00:46:40.538Z,19.72
2023-04-22T00:47:25.596Z,19.72
2023-04-22T00:48:10.587Z,19.72
2023-04-22T00:48:55.352Z,19.72
2023-04-22T00:49:40.607Z,19.72
2023-04-22T00:50:26.020Z,19.72
2023-04-22T00:51:10.981Z,19.72
2023-04-22T00:51:55.986Z,19.72
2023-04-22T00:52:41.118Z,19.72
2023-04-22T00:53:25.560Z,19.72
2023-04-22T00:54:11.632Z,19.72
2023-04-22T00:54:56.241Z,19.72
2023-04-22T00:55:41.179Z,19.72
2023-04-22T00:56:25.917Z,19.72
2023-04-22T00:57:11.188Z,19.72
2023-04-22T00:57:56.162Z,19.72
2023-04-22T00:58:41.718Z,19.72
2023-04-22T00:59:26.563Z,19.72
2023-04-22T01:00:11.358Z,19.72
2023-04-22T01:00:56.480Z,19.72
2023-04-22T01:01:41.327Z,19.72
2023-04-22T01:02:26.837Z,19.72
2023-04-22T01:03:11.635Z,19.72
2023-04-22T01:03:56.844Z,19.72
2023-04-22T01:04:42.260Z,19.72
2023-04-22T01:05:26.610Z,19.72
2023-04-22T01:06:11.652Z,19.72
2023-04-22T01:06:56.726Z,19.72
2023-04-22T01:07:41.788Z,19.72
2023-04-22T01:08:26.958Z,19.72
2023-04-22T01:09:11.786Z,19.72
2023-04-22T01:09:57.775Z,19.72
2023-04-22T01:10:42.023Z,19.72
2023-04-22T01:11:27.157Z,19.72
2023-04-22T01:12:12.181Z,19.72
2023-04-22T01:12:57.207Z,19.72
2023-04-22T01:13:42.610Z,19.72
2023-04-22T01:14:27.894Z,19.72
2023-04-22T01:15:12.350Z,19.72
2023-04-22T01:15:57.464Z,19.72
2023-04-22T01:16:42.619Z,19.72
2023-04-22T01:17:27.631Z,19.72
2023-04-22T01:18:12.795Z,19.72
2023-04-22T01:18:57.928Z,19.72
2023-04-22T01:19:43.569Z,19.72
2023-04-22T01:20:27.735Z,19.72
2023-04-22T01:21:12.808Z,19.72
2023-04-22T01:21:58.582Z,19.72
2023-04-22T01:22:42.599Z,19.72
2023-04-22T01:23:28.174Z,19.72
2023-04-22T01:24:12.829Z,19.72
2023-04-22T01:24:58.088Z,19.72
2023-04-22T01:25:43.637Z,19.72
2023-04-22T01:26:29.458Z,19.72
2023-04-22T01:27:12.730Z,50.36
2023-04-22T01:27:58.090Z,50.36
2023-04-22T01:28:43.762Z,50.36
2023-04-22T01:29:28.316Z,50.36
2023-04-22T01:30:13.359Z,50.36
2023-04-22T01:30:58.522Z,50.36
2023-04-22T01:31:44.132Z,50.36
2023-04-22T01:32:28.997Z,50.36
2023-04-22T01:33:13.551Z,50.36
2023-04-22T01:33:58.873Z,50.36
2023-04-22T01:34:44.646Z,50.36
2023-04-22T01:35:28.966Z,50.36
2023-04-22T01:36:14.356Z,50.36
2023-04-22T01:36:59.237Z,50.36
2023-04-22T01:37:43.943Z,50.36
2023-04-22T01:38:28.824Z,50.36
2023-04-22T01:39:14.669Z,50.36
2023-04-22T01:39:59.008Z,50.36
2023-04-22T01:40:44.053Z,50.36
2023-04-22T01:41:29.206Z,50.36
2023-04-22T01:42:14.321Z,50.36
2023-04-22T01:42:59.605Z,50.36
2023-04-22T01:43:44.383Z,50.36
2023-04-22T01:44:29.343Z,50.36
2023-04-22T01:45:14.701Z,50.36
2023-04-22T01:45:59.011Z,50.36
2023-04-22T01:46:44.506Z,50.36
2023-04-22T01:47:29.455Z,50.36
2023-04-22T01:48:15.274Z,50.36
2023-04-22T01:48:59.784Z,50.36
2023-04-22T01:49:44.771Z,50.36
2023-04-22T01:50:29.733Z,50.36
2023-04-22T01:51:14.962Z,50.36
2023-04-22T01:51:59.792Z,50.36
2023-04-22T01:52:44.647Z,59.71
2023-04-22T01:53:29.565Z,67.94
2023-04-22T01:54:16.850Z,67.94
2023-04-22T01:55:01.590Z,67.94
2023-04-22T01:55:46.642Z,67.94
2023-04-22T01:56:29.721Z,88.62
2023-04-22T01:57:14.893Z,85.62
2023-04-22T01:57:59.737Z,74.78
2023-04-22T01:58:45.260Z,74.78
2023-04-22T01:59:30.068Z,74.78
2023-04-22T02:00:15.214Z,74.78
2023-04-22T02:01:00.307Z,74.78
2023-04-22T02:01:45.476Z,74.78
2023-04-22T02:02:30.753Z,74.78
2023-04-22T02:03:15.766Z,74.78
2023-04-22T02:04:00.486Z,74.78
2023-04-22T02:04:45.581Z,74.78
2023-04-22T02:05:30.629Z,74.78
2023-04-22T02:06:15.867Z,74.78
2023-04-22T02:07:00.935Z,74.78
2023-04-22T02:07:45.879Z,74.78
2023-04-22T02:08:31.051Z,74.78
2023-04-22T02:09:16.233Z,74.78
2023-04-22T02:10:01.304Z,74.78
2023-04-22T02:10:46.217Z,74.78
2023-04-22T02:11:31.219Z,74.78
2023-04-22T02:12:16.409Z,74.78
2023-04-22T02:13:00.928Z,74.78
2023-04-22T02:13:46.228Z,74.78
2023-04-22T02:14:31.383Z,74.78
2023-04-22T02:15:16.443Z,74.78
2023-04-22T02:16:01.622Z,74.78
2023-04-22T02:16:46.348Z,74.78
2023-04-22T02:17:31.713Z,74.78
2023-04-22T02:18:18.549Z,74.78
2023-04-22T02:19:01.322Z,82.19
2023-04-22T02:19:46.393Z,82.19
2023-04-22T02:20:31.610Z,82.19
2023-04-22T02:21:19.304Z,82.19
2023-04-22T02:22:03.716Z,82.19
2023-04-22T02:22:46.696Z,82.19
2023-04-22T02:23:31.454Z,82.19
2023-04-22T02:24:16.825Z,85.11
2023-04-22T02:25:01.605Z,85.11
2023-04-22T02:25:47.146Z,84.35
2023-04-22T02:26:32.284Z,84.35
2023-04-22T02:27:17.163Z,86.63
2023-04-22T02:28:01.901Z,87.97
2023-04-22T02:28:47.157Z,87.97
2023-04-22T02:29:32.309Z,87.97
2023-04-22T02:30:17.886Z,87.97
2023-04-22T02:31:02.408Z,87.97
2023-04-22T02:31:47.726Z,87.97
2023-04-22T02:32:32.931Z,87.97
2023-04-22T02:33:17.222Z,87.97
2023-04-22T02:34:02.766Z,87.97
2023-04-22T02:34:47.701Z,87.97
2023-04-22T02:35:32.349Z,87.97
2023-04-22T02:36:18.066Z,87.97
2023-04-22T02:37:03.094Z,87.97
2023-04-22T02:37:48.070Z,87.97
2023-04-22T02:38:32.952Z,87.97
2023-04-22T02:39:17.989Z,87.97
2023-04-22T02:40:02.898Z,87.97
2023-04-22T02:40:48.224Z,87.97
2023-04-22T02:41:32.714Z,87.97
2023-04-22T02:42:18.816Z,87.97
2023-04-22T02:43:04.057Z,87.97
2023-04-22T02:43:47.973Z,87.97
2023-04-22T02:44:33.471Z,87.97
2023-04-22T02:45:19.012Z,87.97
2023-04-22T02:46:03.270Z,87.97
2023-04-22T02:46:48.464Z,87.97
2023-04-22T02:47:33.352Z,87.97
2023-04-22T02:48:19.038Z,87.97
2023-04-22T02:49:03.675Z,87.97
2023-04-22T02:49:48.627Z,87.97
2023-04-22T02:50:33.855Z,87.97
2023-04-22T02:51:19.054Z,87.97
2023-04-22T02:52:03.847Z,87.97
2023-04-22T02:52:48.762Z,87.97
2023-04-22T02:53:33.498Z,87.97
2023-04-22T02:54:19.404Z,87.97
2023-04-22T02:55:03.839Z,87.97
2023-04-22T02:55:48.987Z,87.97
2023-04-22T02:56:33.742Z,87.97
2023-04-22T02:57:20.113Z,87.97
2023-04-22T02:58:04.043Z,87.97
2023-04-22T02:58:49.812Z,87.97
2023-04-22T02:59:34.166Z,87.97
2023-04-22T03:00:19.554Z,87.97
2023-04-22T03:01:04.561Z,87.97
2023-04-22T03:01:49.789Z,87.97
2023-04-22T03:02:34.544Z,87.97
2023-04-22T03:03:19.646Z,87.97
2023-04-22T03:04:06.615Z,87.97
2023-04-22T03:04:50.689Z,87.97
2023-04-22T03:05:37.753Z,87.97
2023-04-22T03:06:19.875Z,87.97
2023-04-22T03:07:04.829Z,87.97
2023-04-22T03:07:49.911Z,87.97
2023-04-22T03:08:34.953Z,87.97
2023-04-22T03:09:20.305Z,87.97
2023-04-22T03:10:05.254Z,87.97
2023-04-22T03:10:49.953Z,87.97
2023-04-22T03:11:35.019Z,87.97
2023-04-22T03:12:20.531Z,87.97
2023-04-22T03:13:05.079Z,87.97
2023-04-22T03:13:51.056Z,87.97
2023-04-22T03:14:35.192Z,87.97
2023-04-22T03:15:21.566Z,87.97
2023-04-22T03:16:05.530Z,87.97
2023-04-22T03:16:50.155Z,87.97
2023-04-22T03:17:36.199Z,87.97
2023-04-22T03:18:20.980Z,87.97
2023-04-22T03:19:05.725Z,87.97
2023-04-22T03:19:51.135Z,87.97
2023-04-22T03:20:35.750Z,87.97
2023-04-22T03:21:21.005Z,87.97
2023-04-22T03:22:05.859Z,87.97
2023-04-22T03:22:51.036Z,87.97
2023-04-22T03:23:36.224Z,87.97
2023-04-22T03:24:21.389Z,87.97
2023-04-22T03:25:06.594Z,87.97
2023-04-22T03:25:50.948Z,87.97
2023-04-22T03:26:36.495Z,87.97
2023-04-22T03:27:21.782Z,87.97
2023-04-22T03:28:06.204Z,87.97
2023-04-22T03:28:51.477Z,87.97
2023-04-22T03:29:36.328Z,87.97
2023-04-22T03:30:21.716Z,87.97
2023-04-22T03:31:06.474Z,87.97
2023-04-22T03:31:51.414Z,87.97
2023-04-22T03:32:36.483Z,87.97
2023-04-22T03:33:21.440Z,87.97
2023-04-22T03:34:06.968Z,87.97
2023-04-22T03:34:51.814Z,87.97
2023-04-22T03:35:37.019Z,87.97
2023-04-22T03:36:21.636Z,87.97
2023-04-22T03:37:07.143Z,87.97
2023-04-22T03:37:51.849Z,87.97
2023-04-22T03:38:36.996Z,87.97
2023-04-22T03:39:21.980Z,87.97
2023-04-22T03:40:07.430Z,87.97
2023-04-22T03:40:52.033Z,87.97
2023-04-22T03:41:37.120Z,87.97
2023-04-22T03:42:22.680Z,87.97
2023-04-22T03:43:07.032Z,87.97
2023-04-22T03:43:52.078Z,87.97
2023-04-22T03:44:37.387Z,87.97
2023-04-22T03:45:22.513Z,87.97
2023-04-22T03:46:07.902Z,87.97
2023-04-22T03:46:52.309Z,87.97
2023-04-22T03:47:37.414Z,87.97
2023-04-22T03:48:22.468Z,87.97
2023-04-22T03:49:07.685Z,87.97
2023-04-22T03:49:52.758Z,87.97
2023-04-22T03:50:37.814Z,87.97
2023-04-22T03:51:22.752Z,87.97
2023-04-22T03:52:08.092Z,87.97
2023-04-22T03:52:53.089Z,87.97
2023-04-22T03:53:38.049Z,87.97
2023-04-22T03:54:22.870Z,87.97
2023-04-22T03:55:08.024Z,87.97
2023-04-22T03:55:53.378Z,87.97
2023-04-22T03:56:38.157Z,87.97
2023-04-22T03:57:23.110Z,87.97
2023-04-22T03:58:08.769Z,87.97
2023-04-22T03:58:53.434Z,87.97
2023-04-22T03:59:38.687Z,87.97
2023-04-22T04:00:23.602Z,87.97
2023-04-22T04:01:08.830Z,87.97
2023-04-22T04:01:53.995Z,87.97
2023-04-22T04:02:38.726Z,87.97
2023-04-22T04:03:23.889Z,87.97
2023-04-22T04:04:08.987Z,87.97
2023-04-22T04:04:54.354Z,87.97
2023-04-22T04:05:39.760Z,87.97
2023-04-22T04:06:23.977Z,87.97
2023-04-22T04:07:08.952Z,87.97
2023-04-22T04:07:54.099Z,87.97
2023-04-22T04:08:38.963Z,87.97
2023-04-22T04:09:24.217Z,87.97
2023-04-22T04:10:09.308Z,87.97
2023-04-22T04:10:54.707Z,87.97
2023-04-22T04:11:39.306Z,87.97
2023-04-22T04:12:24.425Z,87.97
2023-04-22T04:13:09.386Z,87.97
2023-04-22T04:13:54.673Z,87.97
2023-04-22T04:14:39.675Z,87.97
2023-04-22T04:15:24.561Z,87.97
2023-04-22T04:16:09.720Z,87.97
2023-04-22T04:16:54.981Z,87.97
2023-04-22T04:17:39.701Z,87.97
2023-04-22T04:18:24.688Z,87.97
2023-04-22T04:19:09.949Z,87.97
2023-04-22T04:19:54.859Z,87.97
2023-04-22T04:20:40.356Z,87.97
2023-04-22T04:21:24.913Z,87.97
2023-04-22T04:22:10.139Z,87.97
2023-04-22T04:22:55.145Z,87.97
2023-04-22T04:23:40.763Z,87.97
2023-04-22T04:24:25.343Z,87.97
2023-04-22T04:25:10.638Z,87.97
2023-04-22T04:25:55.375Z,87.97
2023-04-22T04:26:40.197Z,87.97
2023-04-22T04:27:25.566Z,87.97
2023-04-22T04:28:10.480Z,87.97
2023-04-22T04:28:55.308Z,87.97
2023-04-22T04:29:41.134Z,87.97
2023-04-22T04:30:25.563Z,87.97
2023-04-22T04:31:11.180Z,87.97
2023-04-22T04:31:55.707Z,87.97
2023-04-22T04:32:41.020Z,87.97
2023-04-22T04:33:25.823Z,87.97
2023-04-22T04:34:10.988Z,87.97
2023-04-22T04:34:56.352Z,87.97
2023-04-22T04:35:40.974Z,87.97
2023-04-22T04:36:26.146Z,87.97
2023-04-22T04:37:11.136Z,87.97
2023-04-22T04:37:56.242Z,87.97
2023-04-22T04:38:41.276Z,87.97
2023-04-22T04:39:26.152Z,87.97
2023-04-22T04:40:11.256Z,87.97
2023-04-22T04:40:56.271Z,87.97
2023-04-22T04:41:41.707Z,87.97
2023-04-22T04:42:26.582Z,87.97
2023-04-22T04:43:11.719Z,87.97
2023-04-22T04:43:56.602Z,87.97
2023-04-22T04:44:41.548Z,87.97
2023-04-22T04:45:26.830Z,87.97
2023-04-22T04:46:11.841Z,87.97
2023-04-22T04:46:57.036Z,87.97
2023-04-22T04:47:41.852Z,87.97
2023-04-22T04:48:26.926Z,87.97
2023-04-22T04:49:11.890Z,87.97
2023-04-22T04:49:56.818Z,87.97
2023-04-22T04:50:42.067Z,87.97
2023-04-22T04:51:27.338Z,87.97
2023-04-22T04:52:12.056Z,87.97
2023-04-22T04:52:57.166Z,87.97
2023-04-22T04:53:42.321Z,87.97
2023-04-22T04:54:27.518Z,87.97
2023-04-22T04:55:12.414Z,87.97
2023-04-22T04:55:57.355Z,87.97
2023-04-22T04:56:42.393Z,87.97
2023-04-22T04:57:27.378Z,87.97
2023-04-22T04:58:12.308Z,87.97
2023-04-22T04:58:57.805Z,87.97
2023-04-22T04:59:43.269Z,87.97
2023-04-22T05:00:27.691Z,87.97
2023-04-22T05:01:12.761Z,87.97
2023-04-22T05:01:57.856Z,87.97
2023-04-22T05:02:43.104Z,87.97
2023-04-22T05:03:28.249Z,87.97
2023-04-22T05:04:13.213Z,87.97
2023-04-22T05:04:58.041Z,87.97
2023-04-22T05:05:43.747Z,87.97
2023-04-22T05:06:28.128Z,87.97
2023-04-22T05:07:13.163Z,87.97
2023-04-22T05:07:58.199Z,87.97
2023-04-22T05:08:43.241Z,87.97
2023-04-22T05:09:28.709Z,87.97
2023-04-22T05:10:13.687Z,87.97
2023-04-22T05:10:58.623Z,87.97
2023-04-22T05:11:43.079Z,87.97
2023-04-22T05:12:28.236Z,87.97
2023-04-22T05:13:13.390Z,87.97
2023-04-22T05:13:58.246Z,87.97
2023-04-22T05:14:43.797Z,87.97
2023-04-22T05:15:28.561Z,87.97
2023-04-22T05:16:13.721Z,87.97
2023-04-22T05:16:59.056Z,87.97
2023-04-22T05:17:43.824Z,87.97
2023-04-22T05:18:29.272Z,87.97
2023-04-22T05:19:13.845Z,87.97
2023-04-22T05:19:58.809Z,87.97
2023-04-22T05:20:43.854Z,87.97
2023-04-22T05:21:29.088Z,87.97
2023-04-22T05:22:14.120Z,87.97
2023-04-22T05:22:59.026Z,87.97
2023-04-22T05:23:43.894Z,87.97
2023-04-22T05:24:28.883Z,87.97
2023-04-22T05:25:15.136Z,87.97
2023-04-22T05:25:59.484Z,87.97
2023-04-22T05:26:44.262Z,87.97
2023-04-22T05:27:29.159Z,87.97
2023-04-22T05:28:14.467Z,87.97
2023-04-22T05:28:59.477Z,87.97
2023-04-22T05:29:44.606Z,87.97
2023-04-22T05:30:29.389Z,87.97
2023-04-22T05:31:15.359Z,87.97
2023-04-22T05:32:00.425Z,87.97
2023-04-22T05:32:44.927Z,87.97
2023-04-22T05:33:29.708Z,87.97
2023-04-22T05:34:15.203Z,87.97
2023-04-22T05:34:59.716Z,87.97
2023-04-22T05:35:45.170Z,87.97
2023-04-22T05:36:31.573Z,87.97
2023-04-22T05:37:15.124Z,87.97
2023-04-22T05:38:00.161Z,87.97
2023-04-22T05:38:45.418Z,87.97
2023-04-22T05:39:30.364Z,87.97
2023-04-22T05:40:15.703Z,87.97
2023-04-22T05:41:00.732Z,87.97
2023-04-22T05:41:46.991Z,87.97
2023-04-22T05:42:30.851Z,87.97
2023-04-22T05:43:15.762Z,87.97
2023-04-22T05:44:01.104Z,87.97
2023-04-22T05:44:46.239Z,87.97
2023-04-22T05:45:30.610Z,87.97
2023-04-22T05:46:16.032Z,87.97
2023-04-22T05:47:00.666Z,87.97
2023-04-22T05:47:45.825Z,87.97
2023-04-22T05:48:31.457Z,87.97
2023-04-22T05:49:16.475Z,87.97
2023-04-22T05:50:00.966Z,87.97
2023-04-22T05:50:45.710Z,87.97
2023-04-22T05:51:31.171Z,87.97
2023-04-22T05:52:16.295Z,87.97
2023-04-22T05:53:01.100Z,87.97
2023-04-22T05:53:46.959Z,87.97
2023-04-22T05:54:31.020Z,87.97
2023-04-22T05:55:16.561Z,87.97
2023-04-22T05:56:01.430Z,87.97
2023-04-22T05:56:46.359Z,87.97
2023-04-22T05:57:31.453Z,87.97
2023-04-22T05:58:16.937Z,87.97
2023-04-22T05:59:01.627Z,87.97
2023-04-22T05:59:46.709Z,87.97
2023-04-22T06:00:31.785Z,87.97
2023-04-22T06:01:16.940Z,87.97
2023-04-22T06:02:01.828Z,87.97
2023-04-22T06:02:47.262Z,87.97
2023-04-22T06:03:32.072Z,87.97
2023-04-22T06:04:17.359Z,87.97
2023-04-22T06:05:02.640Z,87.97
2023-04-22T06:05:46.973Z,87.97
2023-04-22T06:06:32.003Z,87.97
2023-04-22T06:07:17.812Z,87.97
2023-04-22T06:08:01.885Z,87.97
2023-04-22T06:08:47.283Z,87.97
2023-04-22T06:09:32.384Z,87.97
2023-04-22T06:10:17.345Z,87.97
2023-04-22T06:11:01.825Z,87.97
2023-04-22T06:11:47.481Z,87.97
2023-04-22T06:12:32.200Z,87.97
2023-04-22T06:13:17.501Z,87.97
2023-04-22T06:14:02.705Z,87.97
2023-04-22T06:14:47.418Z,87.97
2023-04-22T06:15:32.415Z,87.97
2023-04-22T06:16:17.672Z,87.97
2023-04-22T06:17:02.487Z,87.97
2023-04-22T06:17:47.720Z,87.97
2023-04-22T06:18:32.693Z,87.97
2023-04-22T06:19:18.410Z,87.97
2023-04-22T06:20:02.784Z,87.97
2023-04-22T06:20:47.652Z,87.97
2023-04-22T06:21:32.743Z,87.97
2023-04-22T06:22:17.872Z,87.97
2023-04-22T06:23:02.433Z,87.97
2023-04-22T06:23:47.761Z,87.97
2023-04-22T06:24:32.944Z,87.97
2023-04-22T06:25:18.330Z,87.97
2023-04-22T06:26:02.970Z,87.97
2023-04-22T06:26:48.718Z,87.97
2023-04-22T06:27:33.240Z,87.97
2023-04-22T06:28:18.113Z,87.97
2023-04-22T06:29:02.877Z,87.97
2023-04-22T06:29:48.229Z,87.97
2023-04-22T06:30:33.452Z,87.97
2023-04-22T06:31:21.050Z,87.97
2023-04-22T06:32:03.317Z,87.97
2023-04-22T06:32:48.570Z,87.97
2023-04-22T06:33:33.723Z,87.97
2023-04-22T06:34:18.871Z,87.97
2023-04-22T06:35:03.477Z,87.97
2023-04-22T06:35:48.916Z,87.97
2023-04-22T06:36:34.392Z,87.97
2023-04-22T06:37:18.586Z,87.97
2023-04-22T06:38:03.615Z,88.36
2023-04-22T06:38:48.896Z,88.36
2023-04-22T06:39:34.132Z,88.36
2023-04-22T06:40:22.418Z,130.76
2023-04-22T06:41:04.033Z,132.97
2023-04-22T06:41:48.889Z,132.26
2023-04-22T06:42:34.082Z,132.26
2023-04-22T06:43:18.989Z,132.26
2023-04-22T06:44:06.018Z,132.26
2023-04-22T06:44:48.951Z,132.26
2023-04-22T06:45:34.105Z,112.95
2023-04-22T06:46:19.661Z,126.84
2023-04-22T06:47:04.486Z,124.21
2023-04-22T06:47:50.622Z,124.21
2023-04-22T06:48:34.754Z,124.21
2023-04-22T06:49:20.002Z,124.21
2023-04-22T06:50:06.852Z,124.21
2023-04-22T06:50:49.700Z,124.21
2023-04-22T06:51:34.555Z,124.21
2023-04-22T06:52:19.907Z,91.93
2023-04-22T06:53:05.592Z,91.93
2023-04-22T06:53:50.342Z,103.28
2023-04-22T06:54:34.984Z,101.66
2023-04-22T06:55:20.408Z,101.66
2023-04-22T06:56:07.712Z,101.66
2023-04-22T06:56:49.958Z,103.18
2023-04-22T06:57:35.312Z,103.18
2023-04-22T06:58:22.318Z,103.18
2023-04-22T06:59:05.434Z,112.16
2023-04-22T06:59:50.283Z,86.30
2023-04-22T07:00:35.662Z,86.30
2023-04-22T07:01:22.096Z,86.30
2023-04-22T07:02:07.945Z,86.30
2023-04-22T07:02:50.615Z,141.76
2023-04-22T07:03:35.600Z,141.76
2023-04-22T07:04:21.780Z,141.76
2023-04-22T07:05:05.616Z,66.00
2023-04-22T07:05:50.726Z,120.00
2023-04-22T07:06:35.990Z,120.00
2023-04-22T07:07:21.758Z,120.00
2023-04-22T07:08:05.961Z,88.00
2023-04-22T07:08:51.062Z,77.00
2023-04-22T07:09:36.328Z,77.00
2023-04-22T07:10:21.381Z,328.99
2023-04-22T07:11:06.435Z,328.99
2023-04-22T07:11:52.090Z,328.99
2023-04-22T07:12:36.437Z,328.99
2023-04-22T07:13:21.215Z,125.91
2023-04-22T07:14:06.552Z,125.91
2023-04-22T07:14:51.741Z,125.91
2023-04-22T07:15:38.403Z,125.91
2023-04-22T07:16:23.809Z,125.91
2023-04-22T07:17:08.927Z,125.91
2023-04-22T07:17:53.599Z,125.91
2023-04-22T07:18:37.112Z,125.91
2023-04-22T07:19:23.997Z,125.91
2023-04-22T07:20:09.966Z,125.91
2023-04-22T07:20:52.161Z,125.91
2023-04-22T07:21:37.234Z,125.91
2023-04-22T07:22:22.706Z,125.91
2023-04-22T07:23:07.608Z,125.91
2023-04-22T07:23:52.287Z,125.91
2023-04-22T07:24:39.494Z,125.91
2023-04-22T07:25:24.266Z,125.91
2023-04-22T07:26:09.408Z,125.91
2023-04-22T07:26:52.332Z,125.91
2023-04-22T07:27:37.594Z,125.91
2023-04-22T07:28:22.885Z,125.91
2023-04-22T07:29:07.688Z,125.91
2023-04-22T07:29:52.743Z,125.91
2023-04-22T07:30:39.744Z,125.91
2023-04-22T07:31:24.918Z,125.91
2023-04-22T07:32:08.121Z,125.91
2023-04-22T07:32:53.264Z,125.91
2023-04-22T07:33:37.813Z,125.91
2023-04-22T07:34:25.016Z,125.91
2023-04-22T07:35:07.839Z,125.91
2023-04-22T07:35:52.781Z,127.57
2023-04-22T07:36:40.158Z,127.57
2023-04-22T07:37:23.302Z,127.57
2023-04-22T07:38:09.610Z,127.57
2023-04-22T07:38:53.243Z,135.80
2023-04-22T07:39:38.574Z,139.77
2023-04-22T07:40:23.367Z,146.33
2023-04-22T07:41:10.322Z,146.33
2023-04-22T07:41:53.444Z,142.69
2023-04-22T07:42:38.497Z,143.63
2023-04-22T07:43:23.768Z,137.69
2023-04-22T07:44:09.019Z,137.69
2023-04-22T07:44:54.175Z,137.69
2023-04-22T07:45:39.019Z,137.69
2023-04-22T07:46:24.316Z,137.69
2023-04-22T07:47:09.256Z,137.69
2023-04-22T07:47:54.324Z,137.69
2023-04-22T07:48:39.188Z,137.69
2023-04-22T07:49:24.182Z,137.69
2023-04-22T07:50:09.275Z,137.69
2023-04-22T07:50:54.316Z,137.69
2023-04-22T07:51:39.542Z,137.69
2023-04-22T07:52:24.640Z,137.69
2023-04-22T07:53:09.487Z,137.69
2023-04-22T07:53:54.419Z,137.69
2023-04-22T07:54:41.034Z,137.69
2023-04-22T07:55:24.355Z,137.69
2023-04-22T07:56:09.506Z,137.69
2023-04-22T07:56:55.100Z,137.69
2023-04-22T07:57:41.380Z,137.69
2023-04-22T07:58:24.949Z,137.69
2023-04-22T07:59:10.231Z,137.69
2023-04-22T07:59:54.591Z,137.69
2023-04-22T08:00:39.631Z,116.00
2023-04-22T08:01:25.170Z,134.86
2023-04-22T08:02:09.392Z,135.81
2023-04-22T08:02:54.579Z,143.12
2023-04-22T08:03:40.171Z,143.12
2023-04-22T08:04:26.653Z,143.12
2023-04-22T08:05:09.856Z,135.80
2023-04-22T08:05:54.784Z,128.00
2023-04-22T08:06:40.346Z,137.89
2023-04-22T08:07:32.446Z,137.89
2023-04-22T08:08:09.871Z,134.14
2023-04-22T08:08:54.868Z,123.22
2023-04-22T08:09:40.369Z,118.89
2023-04-22T08:10:25.077Z,130.80
2023-04-22T08:11:09.857Z,124.33
2023-04-22T08:11:55.112Z,286.99
2023-04-22T08:12:40.037Z,286.99
2023-04-22T08:13:25.347Z,286.99
2023-04-22T08:14:10.409Z,136.75
2023-04-22T08:14:55.463Z,136.75
2023-04-22T08:15:40.132Z,141.64
2023-04-22T08:16:25.280Z,140.28
2023-04-22T08:17:10.379Z,143.46
2023-04-22T08:17:55.306Z,138.63
2023-04-22T08:18:40.196Z,133.64
2023-04-22T08:19:26.940Z,127.77
2023-04-22T08:20:10.793Z,129.77
2023-04-22T08:20:55.452Z,136.17
2023-04-22T08:21:40.381Z,146.33
2023-04-22T08:22:25.676Z,157.17
2023-04-22T08:23:10.534Z,146.92
2023-04-22T08:23:56.220Z,140.28
2023-04-22T08:24:40.843Z,134.86
2023-04-22T08:25:26.076Z,140.68
2023-04-22T08:26:10.793Z,141.68
2023-04-22T08:26:56.146Z,129.20
2023-04-22T08:27:42.609Z,129.20
2023-04-22T08:28:26.219Z,129.20
2023-04-22T08:29:11.857Z,129.20
2023-04-22T08:29:56.868Z,129.20
2023-04-22T08:30:43.560Z,129.20
2023-04-22T08:31:26.482Z,129.20
2023-04-22T08:32:11.425Z,129.20
2023-04-22T08:32:56.725Z,129.20
2023-04-22T08:33:41.720Z,129.20
2023-04-22T08:34:26.779Z,129.20
2023-04-22T08:35:11.984Z,129.20
2023-04-22T08:35:56.931Z,129.20
2023-04-22T08:36:41.854Z,129.20
2023-04-22T08:37:28.877Z,129.20
2023-04-22T08:38:12.371Z,129.20
2023-04-22T08:38:57.679Z,129.20
2023-04-22T08:39:42.095Z,129.20
2023-04-22T08:40:28.976Z,129.20
2023-04-22T08:41:14.615Z,129.20
2023-04-22T08:41:59.094Z,129.20
2023-04-22T08:42:42.531Z,129.20
2023-04-22T08:43:27.894Z,129.20
2023-04-22T08:44:12.719Z,129.20
2023-04-22T08:44:57.974Z,129.20
2023-04-22T08:45:42.829Z,129.20
2023-04-22T08:46:27.922Z,129.20
2023-04-22T08:47:14.854Z,129.20
2023-04-22T08:47:57.445Z,121.66
2023-04-22T08:48:43.059Z,121.66
2023-04-22T08:49:27.805Z,121.66
2023-04-22T08:50:14.855Z,121.66
2023-04-22T08:50:57.921Z,121.66
2023-04-22T08:51:44.921Z,121.66
2023-04-22T08:52:27.830Z,121.66
2023-04-22T08:53:13.907Z,121.66
2023-04-22T08:53:59.966Z,121.66
2023-04-22T08:54:43.220Z,121.66
2023-04-22T08:55:29.092Z,121.66
2023-04-22T08:56:13.414Z,121.66
2023-04-22T08:56:58.171Z,78.00
2023-04-22T08:57:43.019Z,73.00
2023-04-22T08:58:28.125Z,73.00
2023-04-22T08:59:15.386Z,73.00
2023-04-22T08:59:58.727Z,73.00
2023-04-22T09:00:43.545Z,73.00
2023-04-22T09:01:30.602Z,73.00
2023-04-22T09:02:13.811Z,73.00
2023-04-22T09:02:58.806Z,73.00
2023-04-22T09:03:43.754Z,73.00
2023-04-22T09:04:28.830Z,73.00
2023-04-22T09:05:14.268Z,73.00
2023-04-22T09:05:58.808Z,73.00
2023-04-22T09:06:43.807Z,73.00
2023-04-22T09:07:28.952Z,73.00
2023-04-22T09:08:13.802Z,73.00
2023-04-22T09:08:59.089Z,73.00
2023-04-22T09:09:44.482Z,73.00
2023-04-22T09:10:29.174Z,73.00
2023-04-22T09:11:14.260Z,73.00
2023-04-22T09:11:59.401Z,73.00
2023-04-22T09:12:45.210Z,73.00
2023-04-22T09:13:29.406Z,73.00
2023-04-22T09:14:14.814Z,73.00
2023-04-22T09:14:59.432Z,73.00
2023-04-22T09:15:44.373Z,73.00
2023-04-22T09:16:29.787Z,73.00
2023-04-22T09:17:14.832Z,73.00
2023-04-22T09:18:00.512Z,73.00
2023-04-22T09:18:45.518Z,73.00
2023-04-22T09:19:29.768Z,73.00
2023-04-22T09:20:14.827Z,73.00
2023-04-22T09:21:00.076Z,73.00
2023-04-22T09:21:45.863Z,73.00
2023-04-22T09:22:30.238Z,73.00
2023-04-22T09:23:15.191Z,73.00
2023-04-22T09:24:00.407Z,73.00
2023-04-22T09:24:45.092Z,73.00
2023-04-22T09:25:32.254Z,73.00
2023-04-22T09:26:15.480Z,73.00
2023-04-22T09:27:01.087Z,73.00
2023-04-22T09:27:46.474Z,73.00
2023-04-22T09:28:32.429Z,73.00
2023-04-22T09:29:17.456Z,73.00
2023-04-22T09:30:00.701Z,73.00
2023-04-22T09:30:46.424Z,73.00
2023-04-22T09:31:30.796Z,73.00
2023-04-22T09:32:16.255Z,73.00
2023-04-22T09:33:01.185Z,73.00
2023-04-22T09:33:46.914Z,73.00
2023-04-22T09:34:30.794Z,73.00
2023-04-22T09:35:15.939Z,73.00
2023-04-22T09:36:01.182Z,73.00